Time;durP1;ratioP1;P1;durP2;ratioP2;P2;SDS_P1;SDS_P2;PMS_P1;PMS_P2;Temp;Humidity;BMP_temperature;BMP_pressure;BME280_temperature;BME280_humidity;BME280_pressure;Samples;Min_cycle;Max_cycle;Signal;HPM_P1;HPM_P2
2021/08/31 00:02:20;;;;;;;;;;;;;;;9.61;86.33;97281.23;116255;1183;69072;-66
2021/08/31 00:04:49;;;;;;;17.80;10.70;;;;;;;9.57;86.99;97279.55;116262;1182;59552;-68
2021/08/31 00:07:19;;;;;;;19.60;11.30;;;;;;;9.56;87.18;97284.52;116227;1182;59549;-65
2021/08/31 00:09:50;;;;;;;19.30;12.10;;;;;;;9.55;87.79;97279.67;116179;1181;70659;-66
2021/08/31 00:12:20;;;;;;;14.20;10.50;;;;;;;9.54;87.87;97277.38;116250;1181;68448;-69
2021/08/31 00:14:50;;;;;;;13.90;9.30;;;;;;;9.53;87.96;97278.00;116365;1182;69041;-69
2021/08/31 00:17:21;;;;;;;9.10;5.80;;;;;;;9.51;87.72;97278.98;116192;1181;59495;-65
2021/08/31 00:19:50;;;;;;;;;;;;;;;9.50;87.00;97280.95;116311;1182;59564;-67
2021/08/31 00:22:20;;;;;;;14.20;10.50;;;;;;;9.48;87.02;97283.55;116224;1181;70514;-65
2021/08/31 00:24:50;;;;;;;12.30;9.40;;;;;;;9.45;87.65;97285.48;116279;1181;69262;-68
2021/08/31 00:27:20;;;;;;;12.00;8.60;;;;;;;9.42;87.48;97289.66;116368;1181;68125;-65
2021/08/31 00:29:50;;;;;;;14.70;10.70;;;;;;;9.41;87.89;97290.64;116216;1178;59485;-65
2021/08/31 00:32:20;;;;;;;14.70;10.50;;;;;;;9.39;88.49;97289.53;116208;1181;59542;-66
2021/08/31 00:34:50;;;;;;;12.70;8.20;;;;;;;9.38;88.32;97289.45;116190;1181;71305;-67
2021/08/31 00:37:23;;;;;;;11.60;8.90;;;;;;;9.37;87.61;97292.30;116190;1182;68448;-65
2021/08/31 00:39:53;;;;;;;12.40;8.80;;;;;;;9.35;87.28;97291.73;116252;1182;68578;-65
2021/08/31 00:42:23;;;;;;;16.90;11.10;;;;;;;9.35;87.78;97293.70;116207;1179;59558;-66
2021/08/31 00:44:53;;;;;;;10.80;8.40;;;;;;;9.32;87.65;97295.57;116205;1182;59541;-65
2021/08/31 00:47:24;;;;;;;14.10;10.00;;;;;;;9.31;87.61;97294.31;116222;1182;72070;-68
2021/08/31 00:49:54;;;;;;;15.50;10.30;;;;;;;9.28;87.93;97297.61;116201;1181;68387;-65
2021/08/31 00:52:24;;;;;;;12.70;7.80;;;;;;;9.25;87.92;97296.13;116225;1181;69033;-68
2021/08/31 00:54:55;;;;;;;15.50;10.50;;;;;;;9.22;87.25;97300.87;116292;1181;59515;-67
2021/08/31 00:57:26;;;;;;;12.60;9.30;;;;;;;9.19;87.15;97302.38;116210;1181;59618;-68
2021/08/31 00:59:55;;;;;;;7.00;4.90;;;;;;;9.16;86.83;97303.50;116184;1182;71180;-68
2021/08/31 01:02:26;;;;;;;6.30;4.50;;;;;;;9.12;86.01;97304.60;116301;1181;68269;-65
2021/08/31 01:04:56;;;;;;;14.60;9.90;;;;;;;9.09;85.89;97301.30;116210;1182;69199;-68
2021/08/31 01:07:27;;;;;;;9.80;7.60;;;;;;;9.06;86.22;97301.05;116235;1179;59548;-65
2021/08/31 01:09:57;;;;;;;;;;;;;;;9.02;85.86;97299.56;116287;1181;59474;-66
2021/08/31 01:12:27;;;;;;;11.00;8.40;;;;;;;8.98;87.02;97301.57;116186;1181;71236;-69
2021/08/31 01:14:57;;;;;;;9.20;6.80;;;;;;;8.95;86.61;97305.11;116166;1181;69123;-66
2021/08/31 01:17:31;;;;;;;8.80;5.20;;;;;;;8.92;85.93;97305.27;116241;1181;69055;-66
2021/08/31 01:20:02;;;;;;;10.60;7.80;;;;;;;8.89;85.62;97300.60;116295;1181;60029;-67
2021/08/31 01:22:32;;;;;;;13.50;10.10;;;;;;;8.87;85.98;97302.67;116266;1178;59527;-66
2021/08/31 01:25:07;;;;;;;12.50;7.70;;;;;;;8.84;87.24;97300.09;116241;1181;70556;-65
2021/08/31 01:27:37;;;;;;;17.10;11.10;;;;;;;8.82;87.08;97300.04;116290;1182;68660;-66
2021/08/31 01:30:08;;;;;;;13.50;9.40;;;;;;;8.80;88.41;97299.66;116204;1182;69059;-67
2021/08/31 01:32:39;;;;;;;15.00;11.20;;;;;;;8.79;88.15;97300.80;116248;1181;59533;-66
2021/08/31 01:35:09;;;;;;;9.80;6.40;;;;;;;8.78;88.15;97302.95;116188;1181;59554;-66
2021/08/31 01:37:39;;;;;;;11.10;7.10;;;;;;;8.78;87.22;97301.90;116238;1179;70640;-66
2021/08/31 01:40:10;;;;;;;;;;;;;;;8.77;87.03;97303.33;116264;1181;69187;-65
2021/08/31 01:42:48;;;;;;;9.40;6.10;;;;;;;8.76;86.94;97304.30;116194;1182;69108;-65
2021/08/31 01:45:19;;;;;;;8.50;5.40;;;;;;;8.74;86.13;97308.44;116169;1181;59557;-66
2021/08/31 01:47:49;;;;;;;;;;;;;;;8.72;85.97;97313.26;116252;1178;59803;-68
2021/08/31 01:50:27;;;;;;;10.00;6.80;;;;;;;8.69;86.95;97313.99;116301;1179;70368;-68
2021/08/31 01:53:06;;;;;;;9.00;6.60;;;;;;;8.66;85.69;97312.76;116302;1178;69340;-66
2021/08/31 01:55:35;;;;;;;10.90;6.30;;;;;;;8.70;84.77;97312.92;116291;1181;69183;-66
2021/08/31 01:58:06;;;;;;;9.70;7.00;;;;;;;8.70;84.75;97317.92;116210;1180;59528;-68
2021/08/31 02:00:36;;;;;;;8.80;6.80;;;;;;;8.69;85.81;97318.14;116190;1181;59466;-68
2021/08/31 02:03:06;;;;;;;13.60;8.60;;;;;;;8.66;85.68;97315.22;116182;1182;71367;-68
2021/08/31 02:05:36;;;;;;;12.50;7.80;;;;;;;8.63;86.69;97313.83;116240;1181;68433;-66
2021/08/31 02:08:07;;;;;;;11.40;8.70;;;;;;;8.60;86.74;97314.77;116231;1181;69196;-66
2021/08/31 02:10:37;;;;;;;12.20;8.80;;;;;;;8.57;86.98;97313.92;116298;1181;59542;-68
2021/08/31 02:13:08;;;;;;;8.40;5.90;;;;;;;8.54;87.75;97312.02;116212;1179;59550;-66
2021/08/31 02:15:39;;;;;;;13.60;10.10;;;;;;;8.54;86.81;97314.77;116193;1181;70398;-67
2021/08/31 02:18:10;;;;;;;9.60;6.70;;;;;;;8.55;87.68;97316.65;116128;1179;68313;-68
2021/08/31 02:20:40;;;;;;;10.70;6.50;;;;;;;8.56;85.86;97315.36;116288;1176;69059;-66
2021/08/31 02:23:11;;;;;;;9.70;6.60;;;;;;;8.55;85.80;97316.46;116242;1181;59543;-69
2021/08/31 02:25:41;;;;;;;7.80;4.90;;;;;;;8.56;86.79;97317.46;116279;1181;59560;-68
2021/08/31 02:28:11;;;;;;;9.80;6.50;;;;;;;8.55;85.99;97316.83;116198;1181;71331;-65
2021/08/31 02:30:42;;;;;;;8.80;6.80;;;;;;;8.54;87.12;97317.23;116141;1184;69168;-65
2021/08/31 02:33:13;;;;;;;8.80;7.00;;;;;;;8.53;86.59;97312.61;116230;1182;68612;-65
2021/08/31 02:35:43;;;;;;;9.00;5.90;;;;;;;8.54;85.73;97315.50;116198;1182;59561;-65
2021/08/31 02:38:13;;;;;;;8.50;6.00;;;;;;;8.55;85.13;97316.66;116245;1182;59509;-66
2021/08/31 02:40:43;;;;;;;;;;;;;;;8.56;85.09;97315.21;116167;1182;70473;-67
2021/08/31 02:43:13;;;;;;;9.90;7.40;;;;;;;8.57;85.23;97315.77;116226;1182;69065;-68
2021/08/31 02:45:44;;;;;;;9.40;7.10;;;;;;;8.58;85.56;97318.33;116191;1182;68407;-65
2021/08/31 02:48:16;;;;;;;11.60;9.30;;;;;;;8.58;85.85;97314.73;116193;1181;59542;-69
2021/08/31 02:50:52;;;;;;;10.90;7.60;;;;;;;8.51;86.86;97313.63;116244;1179;59501;-68
2021/08/31 02:53:28;;;;;;;9.80;6.60;;;;;;;8.47;85.95;97312.30;116209;1181;71137;-69
2021/08/31 02:55:58;;;;;;;10.40;7.30;;;;;;;8.43;85.73;97315.20;116346;1178;68005;-67
2021/08/31 02:58:27;;;;;;;9.00;7.40;;;;;;;8.38;85.61;97315.34;116248;1181;69095;-68
2021/08/31 03:03:46;;;;;;;12.90;8.90;;;;;;;8.29;88.04;97316.42;116303;1182;59546;-67
2021/08/31 03:06:16;;;;;;;14.50;9.50;;;;;;;8.27;87.45;97316.36;116321;1181;70537;-67
2021/08/31 03:08:45;;;;;;;17.10;11.30;;;;;;;8.28;88.02;97320.30;116206;1181;69763;-68
2021/08/31 03:11:15;;;;;;;11.00;7.60;;;;;;;8.26;87.94;97318.67;116151;1181;69258;-65
2021/08/31 03:13:46;;;;;;;14.00;10.00;;;;;;;8.25;86.92;97316.31;116201;1181;60037;-67
2021/08/31 03:16:17;;;;;;;9.60;6.50;;;;;;;8.23;87.70;97317.30;116229;1181;59555;-65
2021/08/31 03:18:48;;;;;;;15.40;11.40;;;;;;;8.22;87.03;97320.17;116190;1181;71490;-67
2021/08/31 03:21:18;;;;;;;8.10;5.50;;;;;;;8.19;88.42;97318.61;116285;1181;69184;-66
2021/08/31 03:23:48;;;;;;;10.60;6.90;;;;;;;8.20;86.83;97322.01;116205;1181;69389;-67
2021/08/31 03:26:19;;;;;;;10.40;7.10;;;;;;;8.22;87.35;97325.90;116122;1182;59549;-67
2021/08/31 03:28:49;;;;;;;7.80;5.50;;;;;;;8.22;86.97;97328.51;116230;1181;59560;-67
2021/08/31 03:31:20;;;;;;;19.80;13.00;;;;;;;8.22;86.71;97326.08;116175;1181;71311;-66
2021/08/31 03:33:51;;;;;;;18.60;12.10;;;;;;;8.23;89.53;97329.48;116177;1176;69189;-66
2021/08/31 03:36:22;;;;;;;20.20;12.80;;;;;;;8.24;89.91;97328.39;116162;1181;69226;-66
2021/08/31 03:38:51;;;;;;;;;;;;;;;8.25;90.11;97329.67;116282;1181;59562;-66
2021/08/31 03:41:21;;;;;;;16.90;9.90;;;;;;;8.26;89.81;97330.81;116262;1181;59559;-65
2021/08/31 03:43:51;;;;;;;16.00;10.50;;;;;;;8.27;89.46;97328.19;116212;1181;70602;-68
2021/08/31 03:46:22;;;;;;;13.20;8.70;;;;;;;8.28;89.71;97329.52;116358;1181;69106;-65
2021/08/31 03:48:52;;;;;;;17.10;12.00;;;;;;;8.27;89.49;97329.02;116210;1181;68425;-66
2021/08/31 03:51:21;;;;;;;;;;;;;;;8.26;89.36;97335.52;116180;1181;59527;-66
2021/08/31 03:53:52;;;;;;;11.30;8.10;;;;;;;8.25;88.51;97332.11;116286;1181;59503;-65
2021/08/31 03:56:23;;;;;;;12.10;8.50;;;;;;;8.30;87.12;97329.33;116199;1181;70361;-67
2021/08/31 03:58:53;;;;;;;14.90;9.20;;;;;;;8.34;87.38;97330.98;116401;1181;68385;-65
2021/08/31 04:01:23;;;;;;;9.90;7.20;;;;;;;8.35;87.44;97327.12;116116;1182;69218;-66
2021/08/31 04:03:54;;;;;;;14.90;10.30;;;;;;;8.38;87.26;97327.85;116199;1179;59562;-65
2021/08/31 04:06:24;;;;;;;15.80;9.70;;;;;;;8.40;88.61;97331.52;116299;1181;59539;-65
2021/08/31 04:08:54;;;;;;;12.00;7.80;;;;;;;8.45;88.58;97334.52;116236;1181;71356;-64
2021/08/31 04:11:24;;;;;;;9.10;6.70;;;;;;;8.53;88.05;97337.79;116179;1181;69517;-66
2021/08/31 04:13:53;;;;;;;13.20;7.70;;;;;;;8.64;87.59;97343.46;116193;1181;69199;-65
2021/08/31 04:16:24;;;;;;;14.20;10.50;;;;;;;8.76;87.44;97343.23;116283;1181;59545;-65
2021/08/31 04:18:54;;;;;;;13.30;9.20;;;;;;;8.85;87.81;97342.41;116344;1181;59480;-66
2021/08/31 04:21:23;;;;;;;16.70;11.50;;;;;;;8.98;87.66;97344.20;116298;1181;70869;-65
2021/08/31 04:23:53;;;;;;;13.20;8.80;;;;;;;9.14;87.67;97344.29;116195;1182;68521;-66
2021/08/31 04:26:23;;;;;;;10.20;6.70;;;;;;;9.37;87.13;97344.63;116203;1181;69108;-65
2021/08/31 04:28:54;;;;;;;16.80;10.70;;;;;;;9.66;86.68;97347.34;116198;1181;59573;-66
2021/08/31 04:31:24;;;;;;;9.90;8.00;;;;;;;9.92;85.78;97344.11;116189;1181;59548;-65
2021/08/31 04:33:53;;;;;;;9.30;6.80;;;;;;;10.11;84.03;97346.41;116245;1181;71338;-67
2021/08/31 04:36:23;;;;;;;;;;;;;;;10.29;84.09;97346.20;116263;1181;69119;-65
2021/08/31 04:38:54;;;;;;;13.40;7.50;;;;;;;10.35;80.21;97346.09;116230;1180;68429;-65
2021/08/31 04:41:24;;;;;;;10.30;7.00;;;;;;;10.47;81.25;97341.90;116219;1181;59543;-64
2021/08/31 04:43:54;;;;;;;9.20;5.70;;;;;;;10.64;82.04;97346.85;116260;1181;59516;-68
2021/08/31 04:46:23;;;;;;;8.90;6.60;;;;;;;10.83;82.78;97347.98;116235;1180;71406;-66
2021/08/31 04:48:53;;;;;;;8.70;6.70;;;;;;;11.01;82.60;97352.13;116274;1182;69270;-67
2021/08/31 04:51:22;;;;;;;8.70;6.80;;;;;;;11.20;81.56;97352.30;116175;1181;68301;-65
2021/08/31 04:53:52;;;;;;;8.50;6.70;;;;;;;11.47;81.34;97352.29;116216;1182;59570;-65
2021/08/31 04:56:21;;;;;;;9.50;7.20;;;;;;;11.83;79.85;97348.42;116275;1181;59547;-67
2021/08/31 04:58:51;;;;;;;8.00;7.20;;;;;;;12.15;78.21;97343.88;116203;1181;71432;-68
2021/08/31 05:01:20;;;;;;;7.40;6.60;;;;;;;12.48;77.47;97344.52;116251;1182;68366;-65
2021/08/31 05:03:50;;;;;;;10.00;7.40;;;;;;;12.66;74.27;97345.41;116199;1181;69029;-64
2021/08/31 05:06:19;;;;;;;7.50;6.60;;;;;;;12.70;73.96;97345.49;116281;1182;59555;-66
2021/08/31 05:08:48;;;;;;;6.40;5.70;;;;;;;12.84;75.37;97342.45;116291;1180;59566;-67
2021/08/31 05:11:18;;;;;;;7.10;5.90;;;;;;;12.97;74.38;97344.25;116262;1182;70643;-67
2021/08/31 05:13:48;;;;;;;9.90;6.90;;;;;;;13.03;74.02;97347.79;116234;1181;68366;-65
2021/08/31 05:16:18;;;;;;;;;;;;;;;13.22;75.48;97350.79;116248;1181;68056;-65
2021/08/31 05:18:48;;;;;;;6.80;5.50;;;;;;;13.57;75.95;97350.95;116197;1181;59549;-66
2021/08/31 05:21:17;;;;;;;7.30;5.80;;;;;;;13.95;73.08;97346.83;116195;1177;59527;-66
2021/08/31 05:23:46;;;;;;;6.60;4.90;;;;;;;14.39;74.44;97347.80;116204;1181;71411;-68
2021/08/31 05:26:16;;;;;;;7.80;6.10;;;;;;;14.91;72.31;97342.06;116310;1180;69231;-65
2021/08/31 05:28:45;;;;;;;5.80;5.30;;;;;;;15.43;71.74;97341.16;116237;1181;67430;-66
2021/08/31 05:31:14;;;;;;;5.90;5.30;;;;;;;15.91;68.82;97341.68;116300;1182;59517;-65
2021/08/31 05:33:44;;;;;;;5.50;5.00;;;;;;;16.24;67.15;97342.72;116238;1181;59544;-65
2021/08/31 05:36:14;;;;;;;6.30;4.90;;;;;;;16.67;67.14;97340.45;116265;1181;69696;-64
2021/08/31 05:38:43;;;;;;;6.40;5.00;;;;;;;17.03;63.79;97345.88;116232;1181;69499;-64
2021/08/31 05:41:12;;;;;;;7.30;5.90;;;;;;;17.28;63.31;97345.64;116277;1179;68293;-65
2021/08/31 05:43:41;;;;;;;5.30;4.60;;;;;;;17.40;60.27;97350.30;116105;1179;59542;-65
2021/08/31 05:46:11;;;;;;;5.10;4.40;;;;;;;17.65;63.70;97351.63;116138;1179;59526;-69
2021/08/31 05:48:40;;;;;;;7.00;6.20;;;;;;;17.77;58.25;97349.85;116323;1182;70648;-71
2021/08/31 05:51:10;;;;;;;5.80;5.10;;;;;;;17.77;57.57;97350.53;116258;1182;68453;-68
2021/08/31 05:53:40;;;;;;;5.00;4.20;;;;;;;17.81;57.84;97352.30;116278;1181;68541;-68
2021/08/31 05:56:09;;;;;;;6.00;4.80;;;;;;;17.80;57.10;97351.13;116236;1178;59533;-66
2021/08/31 05:58:38;;;;;;;6.20;5.20;;;;;;;17.96;57.30;97349.98;116296;1181;59575;-65
2021/08/31 06:01:07;;;;;;;6.80;5.90;;;;;;;18.11;56.50;97350.45;116269;1181;70064;-69
2021/08/31 06:03:36;;;;;;;;;;;;;;;17.77;56.31;97348.23;116287;1181;69028;-68
2021/08/31 06:06:05;;;;;;;5.90;5.20;;;;;;;17.73;57.52;97344.97;116160;1179;69290;-67
2021/08/31 06:08:35;;;;;;;7.50;6.10;;;;;;;17.51;57.02;97340.32;116180;1181;59519;-67
2021/08/31 06:11:04;;;;;;;5.50;5.00;;;;;;;17.21;58.48;97337.42;116269;1182;60477;-67
2021/08/31 06:13:33;;;;;;;4.30;3.90;;;;;;;17.22;58.64;97334.80;116235;1182;70540;-67
2021/08/31 06:16:02;;;;;;;5.40;4.90;;;;;;;17.94;57.44;97334.88;116270;1182;69034;-68
2021/08/31 06:18:31;;;;;;;6.80;5.20;;;;;;;18.28;55.82;97333.45;116256;1181;69309;-68
2021/08/31 06:21:01;;;;;;;4.10;3.70;;;;;;;18.34;55.87;97334.37;116122;1180;59542;-65
2021/08/31 06:23:30;;;;;;;5.70;5.20;;;;;;;18.98;54.39;97333.95;116229;1180;59505;-65
2021/08/31 06:25:59;;;;;;;4.90;4.10;;;;;;;19.05;53.76;97341.45;116165;1182;71393;-65
2021/08/31 06:28:29;;;;;;;5.70;5.00;;;;;;;19.58;52.42;97342.14;116256;1181;69267;-66
2021/08/31 06:30:58;;;;;;;4.10;3.20;;;;;;;19.88;52.89;97348.04;116157;1182;68394;-65
2021/08/31 06:33:28;;;;;;;7.90;4.60;;;;;;;20.88;49.69;97348.36;116124;1180;59547;-66
2021/08/31 06:35:57;;;;;;;3.60;3.20;;;;;;;21.36;48.45;97347.57;116203;1182;59503;-66
2021/08/31 06:38:27;;;;;;;5.70;5.10;;;;;;;21.65;47.86;97347.25;116069;1181;70629;-67
2021/08/31 06:40:56;;;;;;;5.60;4.80;;;;;;;20.89;48.46;97342.54;115983;1177;69260;-68
2021/08/31 06:43:26;;;;;;;4.90;4.20;;;;;;;20.07;48.73;97346.78;116206;1181;69337;-66
2021/08/31 06:45:55;;;;;;;5.60;5.10;;;;;;;20.66;48.85;97344.85;116118;1181;59543;-66
2021/08/31 06:48:24;;;;;;;;;;;;;;;20.81;47.92;97347.70;116152;1182;59801;-66
2021/08/31 06:50:54;;;;;;;4.20;3.80;;;;;;;21.66;46.61;97351.35;116042;1183;71474;-68
2021/08/31 06:53:24;;;;;;;5.30;4.80;;;;;;;22.24;44.79;97351.40;116184;1181;69398;-67
2021/08/31 06:55:54;;;;;;;4.80;4.40;;;;;;;21.65;44.97;97349.56;116205;1181;69232;-67
2021/08/31 06:58:23;;;;;;;4.70;4.20;;;;;;;22.15;45.03;97342.77;116158;1178;59531;-67
2021/08/31 07:00:53;;;;;;;3.90;3.50;;;;;;;22.41;44.35;97344.51;116171;1181;59844;-67
2021/08/31 07:03:23;;;;;;;5.30;4.70;;;;;;;22.42;43.10;97345.42;116280;1178;71384;-67
2021/08/31 07:05:55;;;;;;;5.20;4.70;;;;;;;21.34;45.34;97346.12;116286;1181;69162;-66
2021/08/31 07:08:24;;;;;;;6.40;4.60;;;;;;;21.02;46.90;97341.52;116321;1178;68342;-68
2021/08/31 07:10:53;;;;;;;5.60;4.60;;;;;;;20.21;48.13;97346.69;116350;1179;59579;-69
2021/08/31 07:13:24;;;;;;;5.50;4.30;;;;;;;20.54;47.90;97340.21;116298;1181;59535;-69
2021/08/31 07:15:53;;;;;;;5.10;4.00;;;;;;;20.95;46.52;97344.31;116213;1181;71431;-67
2021/08/31 07:18:22;;;;;;;4.40;4.00;;;;;;;22.12;44.26;97348.25;116187;1181;68337;-68
2021/08/31 07:20:51;;;;;;;5.30;4.80;;;;;;;22.41;43.14;97351.22;116188;1182;68758;-67
2021/08/31 07:23:23;;;;;;;4.20;3.80;;;;;;;22.51;43.53;97355.31;116238;1181;59931;-66
2021/08/31 07:25:53;;;;;;;5.70;3.50;;;;;;;23.68;41.11;97352.81;116248;1181;59543;-68
2021/08/31 07:28:22;;;;;;;;;;;;;;;24.11;40.64;97350.86;116190;1181;69980;-67
2021/08/31 07:30:52;;;;;;;5.40;4.90;;;;;;;24.59;39.20;97354.59;116124;1181;69096;-67
2021/08/31 07:33:21;;;;;;;4.40;4.00;;;;;;;24.62;38.82;97356.91;116058;1180;69369;-67
2021/08/31 07:35:50;;;;;;;4.00;3.70;;;;;;;24.63;38.80;97357.52;116073;1183;59551;-66
2021/08/31 07:38:19;;;;;;;3.50;2.90;;;;;;;24.39;39.76;97358.44;116087;1181;59556;-67
2021/08/31 07:40:49;;;;;;;4.30;3.50;;;;;;;23.54;40.75;97354.36;116124;1181;71274;-68
2021/08/31 07:43:19;;;;;;;5.00;4.00;;;;;;;22.73;42.44;97348.52;116218;1181;69091;-67
2021/08/31 07:45:49;;;;;;;4.30;3.90;;;;;;;23.05;42.21;97346.77;116171;1181;69030;-70
2021/08/31 07:48:18;;;;;;;5.00;4.50;;;;;;;22.95;42.58;97344.89;116291;1181;59551;-66
2021/08/31 07:50:47;;;;;;;4.00;3.40;;;;;;;22.45;43.16;97339.58;116105;1183;59479;-66
2021/08/31 07:53:16;;;;;;;4.10;3.70;;;;;;;22.74;43.05;97341.63;116263;1178;70574;-67
2021/08/31 07:55:45;;;;;;;5.10;4.60;;;;;;;22.51;43.65;97337.05;116191;1184;68428;-68
2021/08/31 07:58:14;;;;;;;5.40;3.60;;;;;;;22.09;44.69;97340.04;116087;1182;69342;-69
2021/08/31 08:00:43;;;;;;;3.90;3.40;;;;;;;22.29;44.63;97339.72;116245;1177;59524;-68
2021/08/31 08:03:12;;;;;;;3.80;3.50;;;;;;;22.27;44.96;97338.71;116294;1181;59530;-67
2021/08/31 08:05:41;;;;;;;5.10;4.60;;;;;;;22.27;44.40;97338.58;116308;1181;71997;-69
2021/08/31 08:08:10;;;;;;;4.90;4.40;;;;;;;22.18;44.32;97335.55;116456;1180;69845;-67
2021/08/31 08:10:39;;;;;;;7.80;5.00;;;;;;;21.34;46.92;97331.81;116281;1179;68262;-67
2021/08/31 08:13:08;;;;;;;5.70;4.60;;;;;;;21.44;47.47;97331.70;116277;1181;59546;-68
2021/08/31 08:15:37;;;;;;;;;;;;;;;21.47;46.47;97329.79;116290;1182;59524;-68
2021/08/31 08:18:06;;;;;;;5.80;3.50;;;;;;;21.98;45.45;97330.70;116411;1181;71378;-67
2021/08/31 08:20:35;;;;;;;4.80;3.50;;;;;;;22.53;44.24;97324.62;116247;1181;69884;-70
2021/08/31 08:23:03;;;;;;;4.70;3.70;;;;;;;22.67;43.63;97319.50;116302;1181;68476;-67
2021/08/31 08:25:32;;;;;;;4.70;4.20;;;;;;;22.63;43.28;97320.58;116206;1178;59513;-70
2021/08/31 08:28:21;;;;;;;4.40;3.80;;;;;;;21.89;44.88;97327.16;116250;1181;59536;-68
2021/08/31 08:30:53;;;;;;;5.90;4.70;;;;;;;21.42;46.53;97321.00;116296;1181;70605;-67
2021/08/31 08:33:22;;;;;;;4.90;4.40;;;;;;;20.79;47.74;97314.87;116245;1181;68284;-66
2021/08/31 08:35:52;;;;;;;4.10;3.40;;;;;;;21.34;47.05;97317.88;116398;1181;69247;-68
2021/08/31 08:38:20;;;;;;;6.50;5.80;;;;;;;22.25;44.79;97304.41;116248;1181;59541;-67
2021/08/31 08:40:50;;;;;;;4.70;4.20;;;;;;;22.90;43.64;97307.23;116315;1181;59561;-67
2021/08/31 08:43:19;;;;;;;;;;;;;;;22.96;42.59;97307.88;116277;1178;71932;-68
2021/08/31 08:45:49;;;;;;;4.60;4.10;;;;;;;22.09;44.63;97307.60;116340;1181;68991;-66
2021/08/31 08:48:21;;;;;;;5.60;4.20;;;;;;;22.36;44.79;97300.32;116398;1176;68087;-66
2021/08/31 08:50:54;;;;;;;5.40;4.50;;;;;;;23.08;43.41;97300.63;116286;1178;59549;-69
2021/08/31 08:53:25;;;;;;;4.60;3.90;;;;;;;22.75;43.06;97297.88;116306;1181;59558;-72
2021/08/31 08:55:56;;;;;;;4.40;4.00;;;;;;;22.70;43.82;97297.20;116238;1181;70427;-67
2021/08/31 08:58:25;;;;;;;4.90;3.50;;;;;;;23.09;42.87;97293.75;116299;1178;69188;-69
2021/08/31 09:01:01;;;;;;;3.70;3.30;;;;;;;24.05;41.04;97292.87;116288;1180;69311;-69
2021/08/31 09:03:35;;;;;;;3.30;2.90;;;;;;;24.81;39.53;97292.85;116281;1181;59555;-69
2021/08/31 09:06:09;;;;;;;3.70;3.40;;;;;;;25.10;38.27;97291.48;116304;1181;59464;-68
2021/08/31 09:08:54;;;;;;;3.40;3.10;;;;;;;25.40;37.20;97294.07;116265;1181;71185;-67
2021/08/31 09:11:32;;;;;;;3.30;3.00;;;;;;;25.51;37.70;97296.23;116340;1178;68954;-66
2021/08/31 09:14:24;;;;;;;3.70;3.30;;;;;;;26.13;36.05;97297.11;116317;1181;68363;-72
2021/08/31 09:17:09;;;;;;;3.50;3.20;;;;;;;25.54;36.61;97295.67;116135;1182;59588;-70
2021/08/31 09:19:40;;;;;;;4.40;4.00;;;;;;;25.79;37.08;97297.38;116222;1179;59539;-70
2021/08/31 09:22:24;;;;;;;4.20;3.70;;;;;;;24.59;37.98;97293.19;116401;1181;71403;-70
2021/08/31 09:24:56;;;;;;;5.50;4.20;;;;;;;24.15;38.75;97296.11;116203;1181;69208;-68
2021/08/31 09:27:39;;;;;;;3.80;3.40;;;;;;;23.38;41.00;97293.55;116207;1182;68045;-71
2021/08/31 09:30:19;;;;;;;3.90;2.80;;;;;;;23.81;40.47;97291.13;116282;1177;59553;-69
2021/08/31 09:33:07;;;;;;;3.80;3.40;;;;;;;24.17;39.06;97292.36;116253;1181;59552;-68
2021/08/31 09:35:41;;;;;;;3.20;2.90;;;;;;;23.41;39.58;97291.11;116358;1180;70530;-70
2021/08/31 09:38:16;;;;;;;3.40;3.10;;;;;;;23.64;39.47;97288.83;116285;1181;69524;-69
2021/08/31 09:40:48;;;;;;;2.80;2.50;;;;;;;23.93;38.81;97286.00;116279;1178;69031;-66
2021/08/31 09:43:22;;;;;;;2.80;2.50;;;;;;;24.45;37.98;97282.32;116230;1180;59520;-68
2021/08/31 09:45:55;;;;;;;3.30;2.70;;;;;;;24.98;36.29;97288.81;116311;1179;59558;-68
2021/08/31 09:48:24;;;;;;;2.60;2.40;;;;;;;24.92;35.65;97282.27;116256;1179;70382;-70
2021/08/31 09:50:58;;;;;;;3.00;2.60;;;;;;;25.44;35.66;97279.81;116256;1182;68325;-67
2021/08/31 09:53:29;;;;;;;3.40;2.70;;;;;;;25.07;34.78;97282.20;116395;1181;68161;-70
2021/08/31 09:56:01;;;;;;;2.90;2.60;;;;;;;24.20;34.94;97277.34;116208;1182;59559;-68
2021/08/31 09:58:32;;;;;;;3.20;2.90;;;;;;;24.51;34.38;97273.79;116280;1178;59497;-66
2021/08/31 10:01:02;;;;;;;3.40;3.10;;;;;;;23.61;35.56;97274.16;116274;1178;71386;-67
2021/08/31 10:03:33;;;;;;;4.00;3.30;;;;;;;24.37;36.71;97266.34;116312;1181;68188;-67
2021/08/31 10:06:03;;;;;;;2.50;2.30;;;;;;;24.81;36.36;97275.23;116314;1178;68554;-68
2021/08/31 10:08:35;;;;;;;2.90;2.60;;;;;;;25.38;33.35;97273.78;116249;1182;59527;-72
2021/08/31 10:11:05;;;;;;;2.60;2.40;;;;;;;24.87;33.47;97271.79;116287;1182;59635;-67
2021/08/31 10:13:40;;;;;;;3.20;2.50;;;;;;;24.32;35.31;97271.19;116243;1182;70645;-70
2021/08/31 10:16:10;;;;;;;4.10;2.30;;;;;;;24.80;34.32;97270.20;116333;1180;68073;-71
2021/08/31 10:18:39;;;;;;;2.90;2.50;;;;;;;24.85;34.34;97268.86;116302;1181;68497;-68
2021/08/31 10:21:10;;;;;;;3.70;2.80;;;;;;;24.82;34.83;97259.80;116288;1181;59516;-69
2021/08/31 10:23:45;;;;;;;2.70;2.40;;;;;;;24.83;34.40;97262.83;116285;1178;59520;-68
2021/08/31 10:26:28;;;;;;;3.00;2.70;;;;;;;24.71;33.78;97256.59;116310;1180;71390;-69
2021/08/31 10:29:21;;;;;;;2.50;2.20;;;;;;;24.35;34.64;97251.98;116332;1181;69810;-68
2021/08/31 10:31:56;;;;;;;2.60;2.40;;;;;;;24.50;35.26;97247.33;116247;1181;68545;-69
2021/08/31 10:34:33;;;;;;;3.00;2.60;;;;;;;24.45;35.63;97247.73;116294;1181;59509;-71
2021/08/31 10:37:10;;;;;;;2.60;2.30;;;;;;;23.63;36.86;97249.55;116281;1181;59530;-71
2021/08/31 10:39:51;;;;;;;3.90;2.30;;;;;;;23.28;37.43;97247.46;116265;1178;71172;-68
2021/08/31 10:42:29;;;;;;;3.00;2.70;;;;;;;23.42;37.80;97244.34;116254;1182;68450;-67
2021/08/31 10:45:00;;;;;;;2.90;2.50;;;;;;;23.56;38.04;97246.64;116211;1178;69258;-68
2021/08/31 10:47:39;;;;;;;2.30;1.90;;;;;;;24.28;36.39;97247.19;116282;1181;59562;-70
2021/08/31 10:50:09;;;;;;;2.80;2.40;;;;;;;24.70;34.85;97246.44;116248;1178;59534;-68
2021/08/31 10:52:42;;;;;;;3.50;2.40;;;;;;;24.44;35.56;97251.48;116387;1181;71355;-70
2021/08/31 10:55:23;;;;;;;2.90;2.20;;;;;;;24.06;35.29;97249.45;116229;1181;69156;-68
2021/08/31 10:58:22;;;;;;;2.50;2.30;;;;;;;23.54;37.36;97248.23;116300;1181;69207;-71
2021/08/31 11:00:52;;;;;;;3.00;2.60;;;;;;;23.34;37.79;97248.27;116275;1182;59572;-68
2021/08/31 11:03:32;;;;;;;2.40;1.90;;;;;;;23.19;37.45;97250.95;116325;1178;59644;-72
2021/08/31 11:06:14;;;;;;;;;;;;;;;22.93;38.62;97247.69;116320;1181;71381;-68
2021/08/31 11:08:43;;;;;;;3.60;3.00;;;;;;;23.44;38.15;97249.52;116223;1181;69089;-70
2021/08/31 11:11:18;;;;;;;4.30;3.00;;;;;;;23.63;37.79;97251.02;116325;1181;68316;-69
2021/08/31 11:13:57;;;;;;;3.70;2.90;;;;;;;22.66;39.10;97255.06;116254;1181;59508;-67
2021/08/31 11:16:31;;;;;;;3.40;3.00;;;;;;;22.71;39.17;97248.23;116404;1178;59545;-71
2021/08/31 11:19:00;;;;;;;3.10;2.60;;;;;;;22.75;39.68;97244.01;116336;1181;70437;-68
2021/08/31 11:21:29;;;;;;;2.50;2.20;;;;;;;22.56;39.59;97240.08;116296;1179;69071;-65
2021/08/31 11:24:07;;;;;;;2.80;2.20;;;;;;;22.77;39.21;97243.77;116277;1182;69067;-67
2021/08/31 11:26:36;;;;;;;2.70;2.30;;;;;;;22.90;39.25;97239.19;116269;1179;59626;-67
2021/08/31 11:29:10;;;;;;;3.10;2.80;;;;;;;22.87;39.72;97239.27;116343;1181;59592;-67
2021/08/31 11:31:39;;;;;;;3.00;2.70;;;;;;;22.37;39.36;97234.84;116361;1181;70742;-67
2021/08/31 11:34:12;;;;;;;2.90;2.60;;;;;;;22.25;39.86;97232.64;116342;1179;69231;-67
2021/08/31 11:36:42;;;;;;;3.70;2.60;;;;;;;21.68;40.34;97234.63;116234;1183;69218;-71
2021/08/31 11:39:14;;;;;;;3.50;2.80;;;;;;;21.04;42.16;97241.41;116244;1182;59511;-72
2021/08/31 11:41:59;;;;;;;3.20;2.50;;;;;;;20.96;42.05;97236.42;116324;1181;59514;-67
2021/08/31 11:44:28;;;;;;;3.80;2.60;;;;;;;21.10;41.67;97238.39;116265;1178;71446;-66
2021/08/31 11:46:57;;;;;;;3.30;2.40;;;;;;;21.28;40.96;97243.96;116296;1177;68531;-66
2021/08/31 11:49:28;;;;;;;2.60;2.30;;;;;;;21.12;39.71;97248.77;116196;1183;68751;-66
2021/08/31 11:52:16;;;;;;;2.90;2.50;;;;;;;21.21;40.08;97245.29;116341;1181;59547;-71